Terminal Aerodrome Forecast
Issued by NWS

Home | Current Version | Previous Version | Text Only | Print | Product List | Glossary On
Versions: 1 2 3 4 5 6 7 8 9 10 11 12 13 14 15 16
000
FTUS46 KHNX 221120
TAFVIS
TAF
KVIS 221120Z 2212/2312 VRB03KT P6SM SCT250
     FM222000 31007KT P6SM SCT250
     FM230500 VRB03KT P6SM SCT250=

USA.gov is the U.S. government's official web portal to all federal, state and local government web resources and services.